Orange, Ohio
Current Conditions -  °F | °C
As of 4:45 PM on Monday 22 Dec 2014 (Local Time) from KCGF Reporting Station
Broken Clouds Broken Clouds  
Wind Chill:   Ceiling: 20000
Heat Index:   Visibility: 7mi
Dew Point:   Wind: 10mph
Humidity: 70%   Direction: 130°SE
Pressure: 29.97"   Gusts: NA
Location:  41.4475°N, 81.4018°W
Report Text: KCGF 222145Z 13009KT 7SM FEW120 BKN200 05/00 A2997
Loading
Personal Weather Stations






























Interactive Weather Map New forecast layout! Learn more

10-Day Weather Forecast

Advertisements
Track Severe Weather on mobile